EVERETT DAM ON PISCATAOUOG R: From 03/10/2019 02:00 to 03/24/2019 10:00

Date LAKE ELEVATION [FT] PRECIPITATION INCREMENT [IN] RESERVOIR RELEASES [CFS] TAILWATER STAGE [FT]
03/24/2019 00:00 -- 0.00 -- --
03/23/2019 23:00 341.63 0.00 -- 5.95
03/23/2019 22:00 341.63 0.00 -- 5.96
03/23/2019 21:00 341.63 0.00 -- 5.96
03/23/2019 20:00 341.63 0.00 -- 5.97
03/23/2019 19:00 341.63 0.00 -- 5.96
03/23/2019 18:00 341.63 0.00 -- 5.97
03/23/2019 17:00 341.63 0.00 205.2 5.97
03/23/2019 16:00 341.63 0.00 205.2 5.97
03/23/2019 15:00 341.63 0.00 202.3 5.96
03/23/2019 14:00 341.63 0.00 205.2 5.97
03/23/2019 13:00 341.63 0.00 202.3 5.96
03/23/2019 12:00 341.63 0.00 199.4 5.95
03/23/2019 11:00 341.63 0.00 199.4 5.95
03/23/2019 10:00 341.66 0.00 202.3 5.96
03/23/2019 09:00 341.66 0.00 202.3 5.96
03/23/2019 08:00 341.66 0.00 205.2 5.97
03/23/2019 07:00 341.63 0.00 208.1 5.98
03/23/2019 06:00 341.66 0.00 202.3 5.96
03/23/2019 05:00 341.66 0.00 208.1 5.98
03/23/2019 04:00 341.66 0.00 208.1 5.98
03/23/2019 03:00 341.66 0.00 208.1 5.98
03/23/2019 02:00 341.66 0.00 205.2 5.97
03/23/2019 01:00 341.66 0.00 205.2 5.97
03/23/2019 00:00 341.63 0.00 205.2 5.97
03/22/2019 23:00 341.66 0.00 202.3 5.96
03/22/2019 22:00 341.63 0.00 202.3 5.96
03/22/2019 21:00 341.63 0.00 202.3 5.96
03/22/2019 20:00 341.60 0.00 199.4 5.95
03/22/2019 19:00 341.57 0.00 196.6 5.94
03/22/2019 18:00 341.57 0.00 193.8 5.93
03/22/2019 17:00 341.57 0.00 185.4 5.90
03/22/2019 16:00 341.54 0.00 185.4 5.90
03/22/2019 15:00 341.51 0.00 179.9 5.88
03/22/2019 14:00 341.48 0.00 174.6 5.86
03/22/2019 13:00 341.45 0.00 169.3 5.84
03/22/2019 12:00 341.45 0.00 169.3 5.84
03/22/2019 11:00 341.42 0.00 164.0 5.82
03/22/2019 10:00 341.39 0.01 158.9 5.80
03/22/2019 09:00 341.39 0.00 158.9 5.80
03/22/2019 08:00 341.36 0.00 156.3 5.79
03/22/2019 07:00 341.36 0.00 156.3 5.79
03/22/2019 06:00 341.36 0.02 153.8 5.78
03/22/2019 05:00 341.33 0.00 -- --
03/22/2019 04:00 341.33 0.00 148.8 5.76
03/22/2019 03:00 341.33 0.01 148.8 5.76
03/22/2019 02:00 341.30 0.01 148.8 5.76
03/22/2019 01:00 341.30 0.03 146.4 5.75
03/22/2019 00:00 341.30 0.01 146.4 5.75
03/21/2019 23:00 341.30 0.00 143.9 5.74
03/21/2019 22:00 341.27 0.00 143.9 5.74
03/21/2019 21:00 341.27 0.00 141.5 5.73
03/21/2019 20:00 341.27 0.00 141.5 5.73
03/21/2019 19:00 341.27 0.00 139.1 5.72
03/21/2019 18:00 341.24 0.00 136.7 5.71
03/21/2019 17:00 341.24 0.00 134.3 5.70
03/21/2019 16:00 341.24 0.00 134.3 5.70
03/21/2019 15:00 341.21 0.00 132.0 5.69
03/21/2019 14:00 341.21 0.00 129.7 5.68
03/21/2019 13:00 341.21 0.00 129.7 5.68
03/21/2019 12:00 341.21 0.00 129.7 5.68
03/21/2019 11:00 341.21 0.00 127.3 5.67
03/21/2019 10:00 341.21 0.00 129.7 5.68
03/21/2019 09:00 341.21 0.00 129.7 5.68
03/21/2019 08:00 341.21 0.00 129.7 5.68
03/21/2019 07:00 341.21 0.00 129.7 5.68
03/21/2019 06:00 341.21 0.00 129.7 5.68
03/21/2019 05:00 341.21 0.00 129.7 5.68
03/21/2019 04:00 341.21 0.00 132.0 5.69
03/21/2019 03:00 341.21 0.00 132.0 5.69
03/21/2019 02:00 341.21 0.00 132.0 5.69
03/21/2019 01:00 341.21 0.00 132.0 5.69
03/21/2019 00:00 341.21 0.00 132.0 5.69
03/20/2019 23:00 341.21 0.00 132.0 5.69
03/20/2019 22:00 341.21 0.00 132.0 5.69
03/20/2019 21:00 341.21 0.00 132.0 5.69
03/20/2019 20:00 341.21 0.00 132.0 5.69
03/20/2019 19:00 341.21 0.00 129.7 5.68
03/20/2019 18:00 341.21 0.00 132.0 5.69
03/20/2019 17:00 341.21 0.00 129.7 5.68
03/20/2019 16:00 341.21 0.00 129.7 5.68
03/20/2019 15:00 341.21 0.00 127.3 5.67
03/20/2019 14:00 341.18 0.00 127.3 5.67
03/20/2019 13:00 341.18 0.00 127.3 5.67
03/20/2019 12:00 341.18 0.00 127.3 5.67
03/20/2019 11:00 341.18 0.00 127.3 5.67
03/20/2019 10:00 341.18 0.00 127.3 5.67
03/20/2019 09:00 341.18 0.00 127.3 5.67
03/20/2019 08:00 341.21 0.00 127.3 5.67
03/20/2019 07:00 341.21 0.00 127.3 5.67
03/20/2019 06:00 341.21 0.00 129.7 5.68
03/20/2019 05:00 341.21 0.00 132.0 5.69
03/20/2019 04:00 341.21 0.00 132.0 5.69
03/20/2019 03:00 341.21 0.00 132.0 5.69
03/20/2019 02:00 341.24 0.00 134.3 5.70
03/20/2019 01:00 341.24 0.00 134.3 5.70
03/20/2019 00:00 341.24 0.00 136.7 5.71
03/19/2019 23:00 341.24 0.00 136.7 5.71
03/19/2019 22:00 341.27 0.00 139.1 5.72
03/19/2019 21:00 341.27 0.00 139.1 5.72
03/19/2019 20:00 341.27 0.00 139.1 5.72
03/19/2019 19:00 341.27 0.00 141.5 5.73
03/19/2019 18:00 341.27 0.00 141.5 5.73
03/19/2019 17:00 341.27 0.00 141.5 5.73
03/19/2019 16:00 341.30 0.00 143.9 5.74
03/19/2019 15:00 341.30 0.00 143.9 5.74
03/19/2019 14:00 341.30 0.00 143.9 5.74
03/19/2019 13:00 341.30 0.00 146.4 5.75
03/19/2019 12:00 341.30 0.00 146.4 5.75
03/19/2019 11:00 341.33 0.00 146.4 5.75
03/19/2019 10:00 341.30 0.00 146.4 5.75
03/19/2019 09:00 341.33 0.00 148.8 5.76
03/19/2019 08:00 341.33 0.00 151.3 5.77
03/19/2019 07:00 341.33 0.00 148.8 5.76
03/19/2019 06:00 341.33 0.00 153.8 5.78
03/19/2019 05:00 341.36 0.00 153.8 5.78
03/19/2019 04:00 341.36 0.00 156.3 5.79
03/19/2019 03:00 341.39 0.00 -- --
03/19/2019 02:00 341.39 0.00 158.9 5.80
03/19/2019 01:00 341.39 0.00 161.4 5.81
03/19/2019 00:00 341.39 0.00 161.4 5.81
03/18/2019 23:00 341.39 0.00 161.4 5.81
03/18/2019 22:00 341.42 0.00 164.0 5.82
03/18/2019 21:00 341.42 0.00 166.6 5.83
03/18/2019 20:00 341.42 0.00 169.3 5.84
03/18/2019 19:00 341.45 0.00 169.3 5.84
03/18/2019 18:00 341.45 0.00 169.3 5.84
03/18/2019 17:00 341.45 0.00 171.9 5.85
03/18/2019 16:00 341.45 0.00 174.6 5.86
03/18/2019 15:00 341.45 0.00 171.9 5.85
03/18/2019 14:00 341.45 0.00 174.6 5.86
03/18/2019 13:00 341.48 0.00 177.3 5.87
03/18/2019 12:00 341.48 0.00 177.3 5.87
03/18/2019 11:00 341.51 0.00 177.3 5.87
03/18/2019 10:00 341.51 0.00 179.9 5.88
03/18/2019 09:00 341.51 0.00 182.7 5.89
03/18/2019 08:00 341.51 0.00 182.7 5.89
03/18/2019 07:00 341.51 0.00 185.4 5.90
03/18/2019 06:00 341.54 0.00 185.4 5.90
03/18/2019 05:00 341.54 0.00 182.7 5.89
03/18/2019 04:00 341.57 0.00 190.9 5.92
03/18/2019 03:00 341.57 0.00 193.8 5.93
03/18/2019 02:00 341.57 0.00 193.8 5.93
03/18/2019 01:00 341.60 0.00 196.6 5.94
03/18/2019 00:00 341.60 0.00 199.4 5.95
03/17/2019 23:00 341.63 0.00 202.3 5.96
03/17/2019 22:00 341.63 0.00 205.2 5.97
03/17/2019 21:00 341.63 0.00 205.2 5.97
03/17/2019 20:00 341.63 0.00 208.1 5.98
03/17/2019 19:00 341.66 0.00 208.1 5.98
03/17/2019 18:00 341.66 0.00 211.0 5.99
03/17/2019 17:00 341.66 0.00 211.0 5.99
03/17/2019 16:00 341.69 0.00 213.9 6.00
03/17/2019 15:00 341.69 0.00 213.9 6.00
03/17/2019 14:00 341.69 0.00 213.9 6.00
03/17/2019 13:00 341.69 0.00 213.9 6.00
03/17/2019 12:00 341.69 0.00 216.9 6.01
03/17/2019 11:00 341.69 0.00 216.9 6.01
03/17/2019 10:00 341.69 0.00 225.9 6.04
03/17/2019 09:00 341.72 0.00 228.9 6.05
03/17/2019 08:00 341.72 0.00 225.9 6.04
03/17/2019 07:00 341.72 0.00 228.9 6.05
03/17/2019 06:00 341.75 0.00 228.9 6.05
03/17/2019 05:00 341.75 0.00 228.9 6.05
03/17/2019 04:00 341.75 0.00 231.9 6.06
03/17/2019 03:00 341.75 0.00 228.9 6.05
03/17/2019 02:00 341.75 0.00 231.9 6.06
03/17/2019 01:00 341.75 0.00 228.9 6.05
03/17/2019 00:00 341.75 0.00 231.9 6.06
03/16/2019 23:00 341.75 0.00 231.9 6.06
03/16/2019 22:00 341.75 0.00 228.9 6.05
03/16/2019 21:00 341.75 0.00 228.9 6.05
03/16/2019 20:00 341.72 0.00 228.9 6.05
03/16/2019 19:00 341.72 0.00 228.9 6.05
03/16/2019 18:00 341.72 0.00 228.9 6.05
03/16/2019 17:00 341.69 0.00 219.8 6.02
03/16/2019 16:00 341.69 0.00 216.9 6.01
03/16/2019 15:00 341.66 0.00 211.0 5.99
03/16/2019 14:00 341.63 0.00 205.2 5.97
03/16/2019 13:00 341.63 0.00 202.3 5.96
03/16/2019 12:00 341.60 0.00 193.8 5.93
03/16/2019 11:00 341.57 0.00 190.9 5.92
03/16/2019 10:00 341.54 0.00 190.9 5.92
03/16/2019 09:00 341.54 0.00 188.2 5.91
03/16/2019 08:00 341.51 0.00 185.4 5.90
03/16/2019 07:00 341.51 0.00 185.4 5.90
03/16/2019 06:00 341.48 0.00 179.9 5.88
03/16/2019 05:00 341.48 0.00 179.9 5.88
03/16/2019 04:00 341.45 0.00 177.3 5.87
03/16/2019 03:00 341.45 0.00 174.6 5.86
03/16/2019 02:00 341.42 0.00 171.9 5.85
03/16/2019 01:00 341.42 0.00 169.3 5.84
03/16/2019 00:00 341.39 0.00 164.0 5.82
03/15/2019 23:00 341.36 0.00 161.4 5.81
03/15/2019 22:00 341.33 0.00 156.3 5.79
03/15/2019 21:00 341.33 0.00 151.3 5.77
03/15/2019 20:00 341.30 0.00 143.9 5.74
03/15/2019 19:00 341.24 0.00 139.1 5.72
03/15/2019 18:00 341.21 0.00 134.3 5.70
03/15/2019 17:00 341.18 0.00 127.3 5.67
03/15/2019 16:00 341.12 0.00 120.6 5.64
03/15/2019 15:00 341.09 0.00 111.8 5.60
03/15/2019 14:00 341.03 0.00 118.3 5.63
03/15/2019 13:00 340.97 0.00 95.2 5.52
03/15/2019 12:00 340.94 0.00 89.3 5.49
03/15/2019 11:00 340.91 0.00 85.4 5.47
03/15/2019 10:00 340.88 0.00 81.8 5.45
03/15/2019 09:00 340.88 0.00 80.0 5.44
03/15/2019 08:00 340.85 0.04 78.3 5.43
03/15/2019 07:00 340.85 0.00 76.5 5.42
03/15/2019 06:00 340.85 0.00 74.8 5.41
03/15/2019 05:00 340.85 0.00 76.5 5.42
03/15/2019 04:00 340.85 0.07 74.8 5.41
03/15/2019 03:00 340.82 0.00 73.1 5.40
03/15/2019 02:00 340.82 0.00 -- --
03/15/2019 01:00 340.82 0.00 73.1 5.40
03/15/2019 00:00 340.82 0.00 73.1 5.40
03/14/2019 23:00 340.82 0.00 73.1 5.40
03/14/2019 22:00 340.82 0.00 71.4 5.39
03/14/2019 21:00 340.82 0.00 71.4 5.39
03/14/2019 20:00 340.79 0.00 69.8 5.38
03/14/2019 19:00 340.79 0.00 69.8 5.38
03/14/2019 18:00 340.79 0.00 68.2 5.37
03/14/2019 17:00 340.79 0.00 69.8 5.38
03/14/2019 16:00 340.79 0.00 66.8 5.36
03/14/2019 15:00 340.79 0.00 66.8 5.36
03/14/2019 14:00 340.76 0.00 65.3 5.35
03/14/2019 13:00 340.76 0.00 65.3 5.35
03/14/2019 12:00 340.76 0.00 65.3 5.35
03/14/2019 11:00 340.76 0.00 63.9 5.34
03/14/2019 10:00 340.76 0.00 63.9 5.34
03/14/2019 09:00 340.76 0.00 63.9 5.34
03/14/2019 08:00 340.76 0.00 63.9 5.34
03/14/2019 07:00 340.76 0.00 63.9 5.34
03/14/2019 06:00 340.76 0.00 63.9 5.34
03/14/2019 05:00 340.76 0.00 63.9 5.34
03/14/2019 04:00 340.76 0.00 63.9 5.34
03/14/2019 03:00 340.76 0.00 65.3 5.35
03/14/2019 02:00 340.76 0.00 63.9 5.34
03/14/2019 01:00 340.76 0.00 63.9 5.34
03/14/2019 00:00 340.76 0.00 65.3 5.35
03/13/2019 23:00 340.76 0.00 65.3 5.35
03/13/2019 22:00 340.76 0.00 65.3 5.35
03/13/2019 21:00 340.76 0.00 65.3 5.35
03/13/2019 20:00 340.76 0.00 65.3 5.35
03/13/2019 19:00 340.76 0.00 65.3 5.35
03/13/2019 18:00 340.76 0.00 65.3 5.35
03/13/2019 17:00 340.76 0.01 68.2 5.37
03/13/2019 16:00 340.76 0.00 65.3 5.35
03/13/2019 15:00 340.76 0.00 65.3 5.35
03/13/2019 14:00 340.76 0.00 65.3 5.35
03/13/2019 13:00 340.76 0.00 65.3 5.35
03/13/2019 12:00 340.76 0.00 65.3 5.35
03/13/2019 11:00 340.76 0.00 65.3 5.35
03/13/2019 10:00 340.76 0.00 65.3 5.35
03/13/2019 09:00 340.76 0.00 65.3 5.35
03/13/2019 08:00 340.76 0.00 65.3 5.35
03/13/2019 07:00 340.76 0.00 65.3 5.35
03/13/2019 06:00 340.76 0.00 63.9 5.34
03/13/2019 05:00 340.73 0.00 63.9 5.34
03/13/2019 04:00 340.76 0.00 63.9 5.34
03/13/2019 03:00 340.76 0.00 65.3 5.35
03/13/2019 02:00 340.76 0.00 65.3 5.35
03/13/2019 01:00 340.79 0.00 66.8 5.36
03/13/2019 00:00 340.79 0.00 66.8 5.36
03/12/2019 23:00 340.79 0.00 66.8 5.36
03/12/2019 22:00 340.79 0.00 66.8 5.36
03/12/2019 21:00 340.79 0.00 68.2 5.37
03/12/2019 20:00 340.79 0.00 66.8 5.36
03/12/2019 19:00 340.79 0.00 66.8 5.36
03/12/2019 18:00 340.79 0.00 66.8 5.36
03/12/2019 17:00 340.79 0.00 66.8 5.36
03/12/2019 16:00 340.79 0.00 66.8 5.36
03/12/2019 15:00 340.79 0.00 66.8 5.36
03/12/2019 14:00 340.79 0.00 66.8 5.36
03/12/2019 13:00 340.76 0.00 66.8 5.36
03/12/2019 12:00 340.79 0.00 66.8 5.36
03/12/2019 11:00 340.79 0.00 66.8 5.36
03/12/2019 10:00 340.76 0.00 69.8 5.38
03/12/2019 09:00 340.79 0.00 66.8 5.36
03/12/2019 08:00 340.79 0.00 66.8 5.36
03/12/2019 07:00 340.79 0.00 66.8 5.36
03/12/2019 06:00 340.79 0.00 66.8 5.36
03/12/2019 05:00 340.79 0.00 66.8 5.36
03/12/2019 04:00 340.79 0.00 66.8 5.36
03/12/2019 03:00 340.79 0.00 68.2 5.37
03/12/2019 02:00 340.79 0.00 68.2 5.37
03/12/2019 01:00 340.79 0.00 68.2 5.37
03/12/2019 00:00 340.79 0.00 68.2 5.37
03/11/2019 23:00 340.79 0.00 66.8 5.36
03/11/2019 22:00 340.79 0.00 68.2 5.37
03/11/2019 21:00 340.79 0.00 68.2 5.37
03/11/2019 20:00 340.79 0.00 68.2 5.37
03/11/2019 19:00 340.79 0.00 68.2 5.37
03/11/2019 18:00 340.79 0.00 68.2 5.37
03/11/2019 17:00 340.79 0.00 68.2 5.37
03/11/2019 16:00 340.79 0.00 68.2 5.37
03/11/2019 15:00 340.79 0.00 -- --
03/11/2019 14:00 340.79 0.00 68.2 5.37
03/11/2019 13:00 340.79 0.00 68.2 5.37
03/11/2019 12:00 340.79 0.00 68.2 5.37
03/11/2019 11:00 340.79 0.00 69.8 5.38
03/11/2019 10:00 340.79 0.00 68.2 5.37
03/11/2019 09:00 340.79 0.00 68.2 5.37
03/11/2019 08:00 340.79 0.00 69.8 5.38
03/11/2019 07:00 340.79 0.00 69.8 5.38
03/11/2019 06:00 340.79 0.00 65.3 5.35
03/11/2019 05:00 340.79 0.00 65.3 5.35
03/11/2019 04:00 340.79 0.00 65.3 5.35
03/11/2019 03:00 340.79 0.00 65.3 5.35
03/11/2019 02:00 340.79 0.00 65.3 5.35
03/11/2019 01:00 340.79 0.00 65.3 5.35
03/11/2019 00:00 340.79 0.00 65.3 5.35
03/10/2019 23:00 340.79 0.00 65.3 5.35
03/10/2019 22:00 340.79 0.00 65.3 5.35
03/10/2019 21:00 340.79 0.00 65.3 5.35
03/10/2019 20:00 340.79 0.00 65.3 5.35
03/10/2019 19:00 340.79 0.00 65.3 5.35
03/10/2019 18:00 340.79 0.00 65.3 5.35
03/10/2019 17:00 340.79 0.00 65.3 5.35
03/10/2019 16:00 340.79 0.00 65.3 5.35
03/10/2019 15:00 340.79 0.00 65.3 5.35
03/10/2019 14:00 340.79 0.00 65.3 5.35
03/10/2019 13:00 340.79 0.03 65.3 5.35
03/10/2019 12:00 340.79 0.05 63.9 5.34
03/10/2019 11:00 340.79 0.05 63.9 5.34
03/10/2019 10:00 340.79 0.03 63.9 5.34
03/10/2019 09:00 340.79 0.04 63.9 5.34
03/10/2019 08:00 340.79 0.10 63.9 5.34
03/10/2019 07:00 340.76 0.10 63.9 5.34
03/10/2019 06:00 340.76 0.06 62.5 5.33
03/10/2019 05:00 -- -- -- --
03/10/2019 04:00 -- -- -- --
03/10/2019 03:00 -- -- -- --
03/10/2019 02:00 -- -- -- --